createdAt,value
2018-01-19T00:00:59.099Z,1.95
2018-01-19T00:03:27.120Z,1.17
2018-01-19T00:05:54.204Z,1.33
2018-01-19T00:08:21.049Z,1.10
2018-01-19T00:10:47.822Z,1.75
2018-01-19T00:13:14.288Z,3.15
2018-01-19T00:15:41.556Z,1.60
2018-01-19T00:18:07.984Z,1.40
2018-01-19T00:20:35.825Z,1.45
2018-01-19T00:23:02.237Z,1.58
2018-01-19T00:25:28.781Z,1.40
2018-01-19T00:27:55.757Z,1.40
2018-01-19T00:30:23.531Z,1.37
2018-01-19T00:32:50.683Z,1.23
2018-01-19T00:35:19.384Z,1.10
2018-01-19T00:37:45.877Z,1.40
2018-01-19T00:40:14.211Z,1.40
2018-01-19T00:42:40.644Z,1.33
2018-01-19T00:45:07.060Z,1.30
2018-01-19T00:47:33.452Z,1.42
2018-01-19T00:50:00.611Z,1.05
2018-01-19T00:52:27.772Z,1.87
2018-01-19T00:54:54.185Z,2.50
2018-01-19T00:57:21.400Z,1.33
2018-01-19T00:59:47.852Z,1.65
2018-01-19T01:02:14.434Z,1.23
2018-01-19T01:04:41.796Z,2.08
2018-01-19T01:07:08.229Z,1.50
2018-01-19T01:09:34.637Z,0.70
2018-01-19T01:12:01.801Z,1.00
2018-01-19T01:14:28.208Z,1.77
2018-01-19T01:16:55.573Z,1.00
2018-01-19T01:19:36.939Z,0.73
2018-01-19T01:22:04.281Z,1.48
2018-01-19T01:24:38.787Z,1.20
2018-01-19T01:27:05.177Z,1.15
2018-01-19T01:29:32.563Z,1.10
2018-01-19T01:31:59.077Z,1.70
2018-01-19T01:34:26.207Z,0.95
2018-01-19T01:36:52.727Z,1.60
2018-01-19T01:39:19.962Z,2.47
2018-01-19T01:41:46.433Z,1.37
2018-01-19T01:44:13.075Z,1.48
2018-01-19T01:46:39.479Z,1.52
2018-01-19T01:49:10.508Z,1.40
2018-01-19T01:51:36.983Z,1.02
2018-01-19T01:54:03.368Z,0.90
2018-01-19T01:56:29.784Z,0.80
2018-01-19T01:58:56.248Z,1.45
2018-01-19T02:01:23.480Z,1.10
2018-01-19T02:03:49.909Z,1.83
2018-01-19T02:06:16.304Z,1.67
2018-01-19T02:08:42.720Z,1.25
2018-01-19T02:11:09.100Z,1.42
2018-01-19T02:13:35.530Z,1.55
2018-01-19T02:16:03.610Z,0.70
2018-01-19T02:18:30.082Z,1.17
2018-01-19T02:20:56.520Z,1.15
2018-01-19T02:23:22.922Z,0.73
2018-01-19T02:25:50.162Z,0.40
2018-01-19T02:28:16.616Z,0.40
2018-01-19T02:30:43.022Z,0.60
2018-01-19T02:33:09.458Z,0.62
2018-01-19T02:35:36.631Z,0.47
2018-01-19T02:38:03.920Z,0.75
2018-01-19T02:40:30.329Z,0.95
2018-01-19T02:42:56.747Z,0.70
2018-01-19T02:45:23.176Z,0.68
2018-01-19T02:47:50.385Z,0.80
2018-01-19T02:50:16.864Z,0.57
2018-01-19T02:52:43.995Z,0.43
2018-01-19T02:55:11.112Z,0.50
2018-01-19T02:57:37.574Z,0.50
2018-01-19T03:00:03.946Z,0.75
2018-01-19T03:02:30.353Z,0.50
2018-01-19T03:04:57.492Z,0.50
2018-01-19T03:07:24.642Z,0.47
2018-01-19T03:09:51.086Z,0.45
2018-01-19T03:12:17.540Z,0.50
2018-01-19T03:14:44.010Z,0.43
2018-01-19T03:17:11.161Z,0.50
2018-01-19T03:19:37.668Z,0.37
2018-01-19T03:22:04.091Z,0.70
2018-01-19T03:24:30.470Z,0.47
2018-01-19T03:26:56.947Z,0.40
2018-01-19T03:29:23.331Z,0.50
2018-01-19T03:31:49.747Z,0.60
2018-01-19T03:34:16.856Z,1.30
2018-01-19T03:36:43.256Z,0.90
2018-01-19T03:39:09.656Z,1.00
2018-01-19T03:41:36.812Z,0.50
2018-01-19T03:44:03.199Z,1.20
2018-01-19T03:46:29.751Z,1.30
2018-01-19T03:48:56.193Z,0.95
2018-01-19T03:51:22.631Z,1.50
2018-01-19T03:53:49.036Z,1.33
2018-01-19T03:56:15.429Z,1.65
2018-01-19T03:58:41.841Z,0.82
2018-01-19T04:01:08.212Z,1.65
2018-01-19T04:03:35.396Z,1.27
2018-01-19T04:06:01.768Z,0.70
2018-01-19T04:08:28.168Z,1.08
2018-01-19T04:10:55.368Z,1.37
2018-01-19T04:13:22.626Z,1.33
2018-01-19T04:15:49.752Z,0.90
2018-01-19T04:18:16.145Z,1.50
2018-01-19T04:20:42.710Z,1.30
2018-01-19T04:23:09.809Z,1.15
2018-01-19T04:25:36.237Z,1.60
2018-01-19T04:28:02.705Z,0.90
2018-01-19T04:30:29.089Z,1.40
2018-01-19T04:32:57.547Z,0.73
2018-01-19T04:35:24.144Z,1.00
2018-01-19T04:37:50.682Z,0.77
2018-01-19T04:40:17.093Z,1.52
2018-01-19T04:42:43.506Z,1.25
2018-01-19T04:45:09.917Z,0.93
2018-01-19T04:47:37.040Z,0.80
2018-01-19T04:50:03.485Z,1.10
2018-01-19T04:52:29.972Z,1.10
2018-01-19T04:54:56.392Z,0.68
2018-01-19T04:57:22.812Z,1.10
2018-01-19T04:59:49.201Z,1.87
2018-01-19T05:02:15.582Z,0.70
2018-01-19T05:04:41.994Z,1.35
2018-01-19T05:07:09.151Z,2.50
2018-01-19T05:09:36.325Z,3.30
2018-01-19T05:12:02.732Z,0.62
2018-01-19T05:14:29.994Z,0.50
2018-01-19T05:16:56.418Z,1.23
2018-01-19T05:19:23.552Z,2.22
2018-01-19T05:21:50.732Z,1.80
2018-01-19T05:24:17.164Z,1.52
2018-01-19T05:26:43.609Z,0.98
2018-01-19T05:29:10.057Z,1.75
2018-01-19T05:31:36.518Z,1.25
2018-01-19T05:34:02.965Z,1.40
2018-01-19T05:36:30.201Z,1.15
2018-01-19T05:38:56.614Z,1.90
2018-01-19T05:41:23.041Z,1.65
2018-01-19T05:43:49.424Z,1.73
2018-01-19T05:46:15.856Z,1.37
2018-01-19T05:48:42.279Z,1.50
2018-01-19T05:51:09.408Z,1.60
2018-01-19T05:53:35.833Z,1.83
2018-01-19T05:56:02.236Z,1.55
2018-01-19T05:58:28.694Z,0.80
2018-01-19T06:00:55.088Z,0.60
2018-01-19T06:03:21.461Z,0.73
2018-01-19T06:05:47.864Z,0.55
2018-01-19T06:08:14.333Z,0.98
2018-01-19T06:10:40.735Z,1.05
2018-01-19T06:13:07.152Z,0.93
2018-01-19T06:15:33.563Z,0.93
2018-01-19T06:17:59.991Z,1.30
2018-01-19T06:20:27.120Z,1.55
2018-01-19T06:22:54.289Z,1.50
2018-01-19T06:25:20.668Z,4.25
2018-01-19T06:27:47.093Z,1.77
2018-01-19T06:30:13.557Z,2.10
2018-01-19T06:32:39.992Z,1.60
2018-01-19T06:35:06.476Z,2.20
2018-01-19T06:37:32.901Z,2.50
2018-01-19T06:39:59.388Z,2.90
2018-01-19T06:42:25.800Z,5.57
2018-01-19T06:44:52.222Z,3.30
2018-01-19T06:47:18.641Z,3.30
2018-01-19T06:49:45.060Z,5.30
2018-01-19T06:52:11.464Z,3.55
2018-01-19T06:54:38.669Z,4.87
2018-01-19T06:57:05.096Z,4.68
2018-01-19T06:59:32.086Z,3.72
2018-01-19T07:01:59.257Z,4.12
2018-01-19T07:04:25.662Z,2.75
2018-01-19T07:06:52.105Z,2.65
2018-01-19T07:09:19.237Z,3.50
2018-01-19T07:11:45.773Z,3.20
2018-01-19T07:14:13.044Z,2.92
2018-01-19T07:16:40.172Z,2.78
2018-01-19T07:19:06.557Z,3.45
2018-01-19T07:21:32.997Z,2.80
2018-01-19T07:23:59.404Z,1.60
2018-01-19T07:26:25.835Z,2.50
2018-01-19T07:28:52.359Z,2.35
2018-01-19T07:31:19.497Z,1.62
2018-01-19T07:33:46.652Z,1.52
2018-01-19T07:36:13.762Z,0.90
2018-01-19T07:38:40.186Z,1.75
2018-01-19T07:41:06.601Z,1.20
2018-01-19T07:43:33.078Z,1.33
2018-01-19T07:45:59.451Z,1.10
2018-01-19T07:48:26.044Z,1.65
2018-01-19T07:50:52.515Z,1.12
2018-01-19T07:53:18.969Z,1.48
2018-01-19T07:55:45.344Z,1.00
2018-01-19T07:58:11.776Z,1.05
2018-01-19T08:00:38.271Z,0.85
2018-01-19T08:03:04.744Z,0.98
2018-01-19T08:05:31.186Z,1.80
2018-01-19T08:07:58.377Z,1.52
2018-01-19T08:10:24.837Z,0.95
2018-01-19T08:12:51.287Z,1.50
2018-01-19T08:17:53.993Z,1.33
2018-01-19T08:20:20.399Z,1.70
2018-01-19T08:22:46.893Z,2.10
2018-01-19T08:25:13.328Z,0.70
2018-01-19T08:27:39.745Z,1.60
2018-01-19T08:30:06.920Z,1.50
2018-01-19T08:32:34.081Z,1.98
2018-01-19T08:35:00.506Z,1.35
2018-01-19T08:37:26.955Z,2.47
2018-01-19T08:39:53.469Z,1.05
2018-01-19T08:42:20.054Z,1.50
2018-01-19T08:44:47.229Z,1.08
2018-01-19T08:47:13.612Z,2.25
2018-01-19T08:49:40.105Z,1.02
2018-01-19T08:52:06.498Z,1.62
2018-01-19T08:54:32.945Z,0.85
2018-01-19T08:57:00.092Z,1.33
2018-01-19T08:59:27.265Z,1.00
2018-01-19T09:01:53.768Z,1.48
2018-01-19T09:04:20.267Z,0.70
2018-01-19T09:06:46.703Z,1.37
2018-01-19T09:09:14.245Z,0.77
2018-01-19T09:11:41.636Z,1.80
2018-01-19T09:14:08.049Z,0.90
2018-01-19T09:16:34.446Z,0.93
2018-01-19T09:19:00.880Z,5.32
2018-01-19T09:21:27.302Z,1.70
2018-01-19T09:23:54.840Z,1.45
2018-01-19T09:26:21.252Z,1.08
2018-01-19T09:28:47.692Z,1.40
2018-01-19T09:31:15.040Z,1.17
2018-01-19T09:33:41.467Z,1.40
2018-01-19T09:36:07.953Z,1.30
2018-01-19T09:38:34.591Z,0.88
2018-01-19T09:41:01.100Z,1.90
2018-01-19T09:43:28.312Z,1.23
2018-01-19T09:45:54.676Z,0.70
2018-01-19T09:48:21.873Z,0.93
2018-01-19T09:50:48.306Z,1.12
2018-01-19T09:53:14.741Z,1.50
2018-01-19T09:55:41.361Z,1.50
2018-01-19T09:58:07.797Z,1.05
2018-01-19T10:00:34.307Z,1.33
2018-01-19T10:03:01.645Z,0.95
2018-01-19T10:05:28.885Z,1.40
2018-01-19T10:07:55.548Z,1.08
2018-01-19T10:10:22.872Z,1.00
2018-01-19T10:12:49.276Z,1.17
2018-01-19T10:15:15.692Z,1.70
2018-01-19T10:17:42.429Z,1.42
2018-01-19T10:20:08.817Z,1.02
2018-01-19T10:22:36.073Z,2.47
2018-01-19T10:25:03.853Z,1.60
2018-01-19T10:27:30.978Z,1.58
2018-01-19T10:29:58.226Z,1.12
2018-01-19T10:32:24.756Z,1.20
2018-01-19T10:34:51.191Z,1.70
2018-01-19T10:37:17.736Z,2.25
2018-01-19T10:39:44.186Z,2.28
2018-01-19T10:42:11.093Z,1.95
2018-01-19T10:44:37.529Z,1.90
2018-01-19T10:47:04.065Z,4.05
2018-01-19T10:49:30.564Z,1.67
2018-01-19T10:51:57.090Z,1.67
2018-01-19T10:54:23.625Z,1.40
2018-01-19T10:56:50.168Z,1.00
2018-01-19T10:59:16.584Z,1.83
2018-01-19T11:01:42.989Z,2.80
2018-01-19T11:04:10.173Z,0.90
2018-01-19T11:06:36.674Z,0.80
2018-01-19T11:09:04.002Z,0.95
2018-01-19T11:11:30.424Z,0.70
2018-01-19T11:13:57.884Z,1.00
2018-01-19T11:16:24.440Z,1.25
2018-01-19T11:18:51.599Z,3.00
2018-01-19T11:21:18.899Z,1.00
2018-01-19T11:23:45.519Z,1.62
2018-01-19T11:26:11.965Z,1.45
2018-01-19T11:28:38.687Z,1.02
2018-01-19T11:31:05.077Z,1.25
2018-01-19T11:33:31.538Z,0.88
2018-01-19T11:35:58.049Z,1.23
2018-01-19T11:38:25.272Z,1.40
2018-01-19T11:40:51.765Z,0.90
2018-01-19T11:43:18.178Z,0.98
2018-01-19T11:45:45.143Z,0.90
2018-01-19T11:48:11.528Z,0.82
2018-01-19T11:50:37.957Z,0.88
2018-01-19T11:53:04.517Z,1.50
2018-01-19T11:55:31.753Z,2.37
2018-01-19T11:57:58.965Z,1.40
2018-01-19T12:00:25.390Z,1.05
2018-01-19T12:02:51.846Z,1.00
2018-01-19T12:05:18.394Z,1.42
2018-01-19T12:07:44.794Z,1.05
2018-01-19T12:10:11.418Z,1.25
2018-01-19T12:12:37.818Z,2.12
2018-01-19T12:15:05.024Z,0.70
2018-01-19T12:17:31.526Z,1.65
2018-01-19T12:19:57.990Z,1.20
2018-01-19T12:22:24.541Z,0.93
2018-01-19T12:24:51.100Z,1.30
2018-01-19T12:27:17.642Z,1.33
2018-01-19T12:29:44.859Z,1.50
2018-01-19T12:32:11.293Z,1.37
2018-01-19T12:34:37.749Z,0.60
2018-01-19T12:37:04.316Z,0.55
2018-01-19T12:39:30.810Z,1.10
2018-01-19T12:41:57.303Z,1.45
2018-01-19T12:44:23.805Z,1.73
2018-01-19T12:46:52.048Z,1.27
2018-01-19T12:49:18.667Z,0.80
2018-01-19T12:51:45.057Z,0.70
2018-01-19T12:54:11.513Z,1.15
2018-01-19T12:56:37.912Z,1.00
2018-01-19T12:59:04.476Z,1.40
2018-01-19T13:01:31.020Z,1.37
2018-01-19T13:03:57.550Z,0.75
2018-01-19T13:06:23.969Z,1.45
2018-01-19T13:08:50.492Z,1.50
2018-01-19T13:11:16.902Z,1.30
2018-01-19T13:13:44.084Z,1.25
2018-01-19T13:16:10.574Z,1.00
2018-01-19T13:18:37.857Z,1.85
2018-01-19T13:21:04.313Z,1.30
2018-01-19T13:23:30.789Z,1.40
2018-01-19T13:25:57.184Z,1.60
2018-01-19T13:28:23.781Z,1.90
2018-01-19T13:30:50.157Z,2.07
2018-01-19T13:33:16.539Z,2.10
2018-01-19T13:35:43.014Z,1.03
2018-01-19T13:38:09.509Z,2.03
2018-01-19T13:40:35.962Z,1.55
2018-01-19T13:43:02.480Z,1.25
2018-01-19T13:45:28.992Z,1.70
2018-01-19T13:47:56.436Z,2.72
2018-01-19T13:50:22.927Z,2.87
2018-01-19T13:52:49.417Z,2.62
2018-01-19T13:55:16.717Z,1.08
2018-01-19T13:57:43.213Z,8.32
2018-01-19T14:00:10.365Z,2.75
2018-01-19T14:02:36.867Z,1.95
2018-01-19T14:05:03.275Z,3.75
2018-01-19T14:07:30.197Z,2.40
2018-01-19T14:09:56.804Z,2.03
2018-01-19T14:12:23.985Z,0.65
2018-01-19T14:14:50.520Z,1.73
2018-01-19T14:17:17.025Z,1.60
2018-01-19T14:19:44.301Z,2.45
2018-01-19T14:22:10.791Z,6.40
2018-01-19T14:24:37.280Z,11.07
2018-01-19T14:27:03.764Z,7.30
2018-01-19T14:29:30.961Z,6.72
2018-01-19T14:31:57.412Z,3.50
2018-01-19T14:34:23.837Z,2.55
2018-01-19T14:36:50.989Z,2.87
2018-01-19T14:39:17.422Z,3.20
2018-01-19T14:41:43.833Z,2.75
2018-01-19T14:44:10.249Z,2.60
2018-01-19T14:46:36.713Z,3.00
2018-01-19T14:49:03.130Z,1.50
2018-01-19T14:51:29.673Z,2.90
2018-01-19T14:53:56.053Z,2.35
2018-01-19T14:56:22.453Z,2.85
2018-01-19T14:58:48.920Z,3.05
2018-01-19T15:01:15.357Z,2.65
2018-01-19T15:03:41.895Z,7.32
2018-01-19T15:06:09.053Z,7.10
2018-01-19T15:08:35.528Z,19.08
2018-01-19T15:14:05.612Z,10.75
2018-01-19T15:16:33.044Z,8.43
2018-01-19T15:18:59.637Z,6.15
2018-01-19T15:21:26.927Z,3.00
2018-01-19T15:23:53.424Z,5.55
2018-01-19T15:26:19.901Z,3.20
2018-01-19T15:28:46.332Z,7.15
2018-01-19T15:31:12.775Z,2.37
2018-01-19T15:33:39.222Z,2.10
2018-01-19T15:36:05.635Z,2.80
2018-01-19T15:38:32.151Z,1.70
2018-01-19T15:40:58.747Z,1.92
2018-01-19T15:43:25.180Z,1.35
2018-01-19T15:45:51.678Z,1.62
2018-01-19T15:48:18.110Z,1.20
2018-01-19T15:50:44.622Z,1.30
2018-01-19T15:53:11.287Z,1.08
2018-01-19T15:55:37.689Z,2.45
2018-01-19T15:58:04.133Z,1.10
2018-01-19T16:00:30.656Z,1.55
2018-01-19T16:02:57.070Z,1.20
2018-01-19T16:05:24.248Z,1.37
2018-01-19T16:07:50.646Z,1.92
2018-01-19T16:10:17.834Z,2.97
2018-01-19T16:12:44.282Z,1.52
2018-01-19T16:15:10.713Z,1.95
2018-01-19T16:17:37.146Z,1.37
2018-01-19T16:20:03.637Z,0.95
2018-01-19T16:22:30.033Z,1.80
2018-01-19T16:24:56.495Z,2.15
2018-01-19T16:27:23.709Z,2.17
2018-01-19T16:29:50.241Z,2.90
2018-01-19T16:32:16.670Z,6.37
2018-01-19T16:34:44.931Z,25.58
2018-01-19T16:37:11.618Z,5.43
2018-01-19T16:39:38.844Z,16.58
2018-01-19T16:42:05.333Z,9.70
2018-01-19T16:44:31.795Z,8.90
2018-01-19T16:46:58.242Z,5.70
2018-01-19T16:49:24.772Z,4.53
2018-01-19T16:51:51.204Z,4.18
2018-01-19T16:54:18.378Z,3.35
2018-01-19T16:56:45.586Z,3.05
2018-01-19T16:59:11.995Z,2.67
2018-01-19T17:01:38.416Z,3.00
2018-01-19T17:04:05.722Z,3.37
2018-01-19T17:06:32.224Z,6.55
2018-01-19T17:08:58.724Z,9.75
2018-01-19T17:11:25.989Z,10.05
2018-01-19T17:13:52.452Z,10.38
2018-01-19T17:16:18.933Z,12.30
2018-01-19T17:18:45.374Z,8.77
2018-01-19T17:21:12.597Z,8.55
2018-01-19T17:23:38.995Z,7.10
2018-01-19T17:26:05.574Z,8.77
2018-01-19T17:28:32.050Z,7.95
2018-01-19T17:30:58.472Z,5.65
2018-01-19T17:33:24.988Z,5.15
2018-01-19T17:35:52.158Z,4.70
2018-01-19T17:38:18.716Z,6.75
2018-01-19T17:40:45.238Z,7.35
2018-01-19T17:43:11.953Z,6.87
2018-01-19T17:45:39.112Z,7.40
2018-01-19T17:48:06.258Z,6.60
2018-01-19T17:50:32.721Z,5.80
2018-01-19T17:52:59.305Z,4.57
2018-01-19T17:55:25.720Z,4.85
2018-01-19T17:57:52.197Z,4.70
2018-01-19T18:00:18.704Z,5.53
2018-01-19T18:05:40.896Z,6.05
2018-01-19T18:08:07.356Z,5.60
2018-01-19T18:10:33.944Z,7.05
2018-01-19T18:13:01.130Z,6.80
2018-01-19T18:15:27.608Z,8.20
2018-01-19T18:17:54.061Z,10.38
2018-01-19T18:20:21.262Z,9.85
2018-01-19T18:22:47.762Z,11.60
2018-01-19T18:25:14.374Z,10.23
2018-01-19T18:27:40.813Z,10.27
2018-01-19T18:30:08.086Z,9.68
2018-01-19T18:32:34.647Z,10.55
2018-01-19T18:35:01.843Z,9.50
2018-01-19T18:37:29.008Z,11.75
2018-01-19T18:39:55.490Z,11.60
2018-01-19T18:42:22.089Z,9.70
2018-01-19T18:44:48.502Z,7.53
2018-01-19T18:47:15.666Z,10.20
2018-01-19T18:49:42.141Z,9.77
2018-01-19T18:52:08.618Z,7.28
2018-01-19T18:54:35.035Z,8.52
2018-01-19T18:57:02.249Z,8.05
2018-01-19T18:59:28.726Z,10.48
2018-01-19T19:01:55.922Z,11.95
2018-01-19T19:04:22.372Z,8.10
2018-01-19T19:06:48.963Z,8.32
2018-01-19T19:09:15.363Z,9.52
2018-01-19T19:11:41.915Z,9.98
2018-01-19T19:14:09.264Z,10.20
2018-01-19T19:16:36.426Z,11.95
2018-01-19T19:19:03.053Z,10.40
2018-01-19T19:21:30.254Z,10.30
2018-01-19T19:23:56.713Z,11.70
2018-01-19T19:26:23.244Z,12.05
2018-01-19T19:28:49.767Z,11.15
2018-01-19T19:31:16.180Z,10.32
2018-01-19T19:33:42.704Z,15.50
2018-01-19T19:36:09.149Z,11.05
2018-01-19T19:38:35.617Z,9.02
2018-01-19T19:41:02.103Z,8.00
2018-01-19T19:43:28.688Z,11.43
2018-01-19T19:45:55.209Z,8.32
2018-01-19T19:48:21.630Z,8.00
2018-01-19T19:50:48.156Z,9.02
2018-01-19T19:53:14.644Z,8.80
2018-01-19T19:55:41.115Z,8.02
2018-01-19T19:58:07.596Z,9.15
2018-01-19T20:00:34.782Z,8.45
2018-01-19T20:03:02.512Z,7.37
2018-01-19T20:05:29.025Z,11.80
2018-01-19T20:07:55.517Z,10.60
2018-01-19T20:10:21.930Z,9.95
2018-01-19T20:12:48.414Z,9.90
2018-01-19T20:15:15.018Z,6.80
2018-01-19T20:17:41.591Z,8.32
2018-01-19T20:20:08.068Z,7.30
2018-01-19T20:22:34.573Z,9.02
2018-01-19T20:25:01.228Z,5.45
2018-01-19T20:27:27.960Z,5.28
2018-01-19T20:29:54.710Z,5.57
2018-01-19T20:32:21.453Z,5.25
2018-01-19T20:34:48.154Z,4.80
2018-01-19T20:37:14.969Z,4.62
2018-01-19T20:39:42.461Z,6.47
2018-01-19T20:42:09.382Z,4.35
2018-01-19T20:44:36.382Z,3.95
2018-01-19T20:47:03.134Z,4.40
2018-01-19T20:49:30.914Z,3.28
2018-01-19T20:51:57.649Z,3.40
2018-01-19T20:54:24.992Z,2.47
2018-01-19T20:56:51.731Z,2.90
2018-01-19T20:59:18.473Z,3.03
2018-01-19T21:01:45.757Z,3.62
2018-01-19T21:04:13.358Z,3.50
2018-01-19T21:06:40.243Z,3.62
2018-01-19T21:09:06.715Z,2.97
2018-01-19T21:11:33.297Z,3.20
2018-01-19T21:13:59.816Z,7.90
2018-01-19T21:16:27.997Z,6.80
2018-01-19T21:18:54.670Z,2.58
2018-01-19T21:21:21.125Z,2.60
2018-01-19T21:23:47.718Z,4.05
2018-01-19T21:26:14.153Z,2.72
2018-01-19T21:28:40.576Z,3.00
2018-01-19T21:31:07.109Z,2.55
2018-01-19T21:33:33.510Z,2.00
2018-01-19T21:36:00.768Z,3.25
2018-01-19T21:38:28.023Z,2.35
2018-01-19T21:40:55.274Z,3.20
2018-01-19T21:43:22.473Z,3.55
2018-01-19T21:45:48.909Z,4.12
2018-01-19T21:48:15.674Z,5.32
2018-01-19T21:50:42.176Z,3.05
2018-01-19T21:53:08.592Z,5.62
2018-01-19T21:55:35.024Z,4.85
2018-01-19T21:58:01.451Z,6.70
2018-01-19T22:00:27.831Z,6.72
2018-01-19T22:02:54.255Z,6.90
2018-01-19T22:05:20.713Z,7.35
2018-01-19T22:07:47.917Z,4.25
2018-01-19T22:10:14.333Z,5.90
2018-01-19T22:12:41.033Z,5.50
2018-01-19T22:15:08.214Z,5.97
2018-01-19T22:17:34.597Z,5.87
2018-01-19T22:20:01.035Z,6.70
2018-01-19T22:22:27.427Z,7.70
2018-01-19T22:24:53.926Z,9.70
2018-01-19T22:27:21.117Z,8.52
2018-01-19T22:29:47.596Z,7.15
2018-01-19T22:32:14.784Z,8.43
2018-01-19T22:34:41.498Z,5.75
2018-01-19T22:37:07.908Z,5.62
2018-01-19T22:39:34.350Z,5.70
2018-01-19T22:42:01.549Z,7.62
2018-01-19T22:44:28.141Z,6.25
2018-01-19T22:46:55.356Z,8.52
2018-01-19T22:49:21.868Z,6.00
2018-01-19T22:51:48.325Z,6.95
2018-01-19T22:54:14.734Z,8.02
2018-01-19T22:56:41.218Z,9.63
2018-01-19T22:59:08.460Z,6.30
2018-01-19T23:01:35.625Z,6.35
2018-01-19T23:04:02.807Z,5.30
2018-01-19T23:06:29.221Z,6.50
2018-01-19T23:08:55.608Z,3.37
2018-01-19T23:11:22.185Z,5.15
2018-01-19T23:13:49.465Z,4.80
2018-01-19T23:16:15.881Z,6.12
2018-01-19T23:18:42.294Z,6.60
2018-01-19T23:21:09.506Z,5.65
2018-01-19T23:23:36.006Z,6.53
2018-01-19T23:26:02.385Z,7.70
2018-01-19T23:28:28.857Z,9.82
2018-01-19T23:30:55.327Z,5.22
2018-01-19T23:33:21.814Z,8.07
2018-01-19T23:35:48.926Z,7.28
2018-01-19T23:38:16.886Z,4.60
2018-01-19T23:40:43.304Z,6.55
2018-01-19T23:43:09.673Z,8.52
2018-01-19T23:45:36.145Z,6.15
2018-01-19T23:48:02.592Z,6.65
2018-01-19T23:50:29.028Z,4.90
2018-01-19T23:52:55.436Z,5.40
2018-01-19T23:55:21.825Z,5.25
2018-01-19T23:57:48.233Z,7.82
